Terminal Aerodrome Forecast
Issued by NWS Grand Forks, ND

Home | Current Version | Previous Version | Graphics & Text | Print | Product List | Glossary On
Versions: 1 2 3 4 5 6 7 8 9 10 11 12 13 14
000
FTUS43 KFGF 022300
TAFGFK
TAF
KGFK 022332Z 0300/0324 18014G23KT P6SM FEW060 BKN100
     FM030200 19007KT P6SM SCT120
     FM030900 31009KT P6SM SCT120
     FM031500 31017G25KT P6SM SCT120=

USA.gov is the U.S. government's official web portal to all federal, state and local government web resources and services.